Time;durP1;ratioP1;P1;durP2;ratioP2;P2;SDS_P1;SDS_P2;PMS_P1;PMS_P2;Temp;Humidity;BMP_temperature;BMP_pressure;BME280_temperature;BME280_humidity;BME280_pressure;Samples;Min_cycle;Max_cycle;Signal;HPM_P1;HPM_P2
2023/07/01 00:03:23;;;;;;;3.58;3.28;;;;;;;-149.37;100.00;59372.97;10197725;29;20419;-74
2023/07/01 00:08:29;;;;;;;4.35;3.30;;;;;;;-149.37;100.00;59372.97;10197844;29;20036;-75
2023/07/01 00:13:32;;;;;;;8.82;3.97;;;;;;;-149.37;100.00;59372.97;10201370;29;20126;-74
2023/07/01 00:18:35;;;;;;;4.20;3.47;;;;;;;-149.37;100.00;59372.97;10203558;29;20503;-75
2023/07/01 00:23:39;;;;;;;4.20;3.40;;;;;;;-149.37;100.00;59372.97;10197756;29;20877;-75
2023/07/01 00:28:42;;;;;;;6.55;3.63;;;;;;;-149.37;100.00;59372.97;10196019;29;20460;-74
2023/07/01 00:33:45;;;;;;;4.47;3.33;;;;;;;-149.37;100.00;59372.97;10196051;29;20423;-75
2023/07/01 00:38:49;;;;;;;4.25;3.80;;;;;;;-149.37;100.00;59372.97;10197894;29;20047;-74
2023/07/01 00:43:52;;;;;;;6.90;3.60;;;;;;;-149.37;100.00;59372.97;10199144;29;20074;-77
2023/07/01 00:48:56;;;;;;;6.45;3.58;;;;;;;-149.37;100.00;59372.97;10202563;29;20491;-75
2023/07/01 00:54:00;;;;;;;6.00;3.38;;;;;;;-149.37;100.00;59372.97;10193671;29;20151;-74
2023/07/01 00:59:03;;;;;;;4.72;3.15;;;;;;;-149.37;100.00;59372.97;10194967;29;20043;-74
2023/07/01 01:04:15;;;;;;;6.00;3.47;;;;;;;-149.37;100.00;59372.97;10197186;29;20047;-74
2023/07/01 01:09:27;;;;;;;7.18;4.10;;;;;;;-149.37;100.00;59372.97;10191131;29;20043;-74
2023/07/01 01:14:30;;;;;;;5.07;3.40;;;;;;;-149.37;100.00;59372.97;10203926;29;20054;-75
2023/07/01 01:19:39;;;;;;;6.75;3.08;;;;;;;-149.37;100.00;59372.97;10195405;29;20043;-75
2023/07/01 01:24:47;;;;;;;4.88;3.25;;;;;;;-149.37;100.00;59372.97;10210491;28;20071;-73
2023/07/01 01:29:51;;;;;;;6.28;3.47;;;;;;;-149.37;100.00;59372.97;10192999;29;20446;-74
2023/07/01 01:34:54;;;;;;;4.85;3.10;;;;;;;-149.37;100.00;59372.97;10214184;29;20056;-75
2023/07/01 01:40:09;;;;;;;3.13;2.92;;;;;;;-149.37;100.00;59372.97;10190320;29;20094;-74
2023/07/01 01:45:19;;;;;;;3.85;3.45;;;;;;;-149.37;100.00;59372.97;10197599;29;20521;-75
2023/07/01 01:50:23;;;;;;;3.40;3.10;;;;;;;-149.37;100.00;59372.97;10194722;29;20074;-74
2023/07/01 01:55:26;;;;;;;5.78;2.83;;;;;;;-149.37;100.00;59372.97;10192752;29;20103;-74
2023/07/01 02:00:33;;;;;;;7.20;3.03;;;;;;;-149.37;100.00;59372.97;10193304;29;20047;-74
2023/07/01 02:05:36;;;;;;;4.88;3.08;;;;;;;-149.37;100.00;59372.97;10192954;29;20036;-73
2023/07/01 02:10:39;;;;;;;3.40;3.10;;;;;;;-149.37;100.00;59372.97;10186559;29;20059;-74
2023/07/01 02:15:44;;;;;;;4.22;2.72;;;;;;;-149.37;100.00;59372.97;10195118;29;20620;-74
2023/07/01 02:20:47;;;;;;;5.13;3.35;;;;;;;-149.37;100.00;59372.97;10182836;29;20415;-74
2023/07/01 02:25:51;;;;;;;4.43;2.80;;;;;;;-149.37;100.00;59372.97;10187794;29;20072;-75
2023/07/01 02:30:55;;;;;;;5.05;3.10;;;;;;;-149.37;100.00;59372.97;10195701;29;20052;-74
2023/07/01 02:35:58;;;;;;;4.22;2.83;;;;;;;-149.37;100.00;59372.97;10196327;29;20050;-74
2023/07/01 02:41:01;;;;;;;3.92;3.10;;;;;;;-149.37;100.00;59372.97;10197367;29;20056;-74
2023/07/01 02:46:05;;;;;;;4.50;2.92;;;;;;;-149.37;100.00;59372.97;10197653;29;20059;-73
2023/07/01 02:51:08;;;;;;;3.95;2.45;;;;;;;-149.37;100.00;59372.97;10192449;29;20520;-74
2023/07/01 02:56:11;;;;;;;2.90;2.40;;;;;;;-149.37;100.00;59372.97;10190400;29;20523;-75
2023/07/01 03:01:16;;;;;;;4.50;2.95;;;;;;;-149.37;100.00;59372.97;10192005;29;20043;-74
2023/07/01 03:06:19;;;;;;;6.43;2.90;;;;;;;-149.37;100.00;59372.97;10199108;29;20059;-74
2023/07/01 03:11:21;;;;;;;4.85;2.80;;;;;;;-149.37;100.00;59372.97;10196988;29;20396;-75
2023/07/01 03:16:26;;;;;;;4.47;2.85;;;;;;;-149.37;100.00;59372.97;10197790;29;20119;-74
2023/07/01 03:21:29;;;;;;;10.48;3.15;;;;;;;-149.37;100.00;59372.97;10196186;29;20574;-75
2023/07/01 03:26:32;;;;;;;5.10;3.10;;;;;;;-149.37;100.00;59372.97;10190130;29;20054;-74
2023/07/01 03:31:36;;;;;;;5.97;2.90;;;;;;;-149.37;100.00;59372.97;10194184;29;20574;-74
2023/07/01 03:36:39;;;;;;;3.83;3.00;;;;;;;-149.37;100.00;59372.97;10220355;29;20568;-74
2023/07/01 03:41:43;;;;;;;4.32;2.55;;;;;;;-149.37;100.00;59372.97;10197251;29;20158;-74
2023/07/01 03:46:47;;;;;;;4.72;2.50;;;;;;;-149.37;100.00;59372.97;10203778;29;20656;-74
2023/07/01 03:51:51;;;;;;;4.60;2.95;;;;;;;-149.37;100.00;59372.97;10196259;29;20047;-75
2023/07/01 03:56:54;;;;;;;2.88;2.60;;;;;;;-149.37;100.00;59372.97;10190816;29;20044;-74
2023/07/01 04:01:59;;;;;;;3.70;2.33;;;;;;;-149.37;100.00;59372.97;10176464;29;20461;-74
2023/07/01 04:07:02;;;;;;;5.30;2.80;;;;;;;-149.37;100.00;59372.97;10191834;29;20044;-75
2023/07/01 04:12:07;;;;;;;4.43;2.30;;;;;;;-149.37;100.00;59372.97;10190784;29;20094;-74
2023/07/01 04:17:11;;;;;;;2.72;2.20;;;;;;;-149.37;100.00;59372.97;10192236;29;20055;-74
2023/07/01 04:22:14;;;;;;;5.50;2.17;;;;;;;-149.37;100.00;59372.97;10190186;29;20067;-74
2023/07/01 04:27:17;;;;;;;2.67;2.13;;;;;;;-149.37;100.00;59372.97;10186144;29;20064;-74
2023/07/01 04:32:21;;;;;;;4.40;1.92;;;;;;;-149.37;100.00;59372.97;10210749;29;20047;-75
2023/07/01 04:37:24;;;;;;;4.95;2.00;;;;;;;-149.37;100.00;59372.97;10179600;29;20047;-74
2023/07/01 04:42:27;;;;;;;2.28;1.92;;;;;;;-149.37;100.00;59372.97;10189580;29;20535;-75
2023/07/01 04:47:32;;;;;;;4.93;2.30;;;;;;;-149.37;100.00;59372.97;10188911;29;20043;-73
2023/07/01 04:52:34;;;;;;;2.47;1.75;;;;;;;-149.37;100.00;59372.97;10192682;29;20100;-75
2023/07/01 04:57:37;;;;;;;7.15;1.95;;;;;;;-149.37;100.00;59372.97;10217602;29;20050;-75
2023/07/01 05:02:42;;;;;;;2.78;2.15;;;;;;;-149.37;100.00;59372.97;10224161;29;20075;-74
2023/07/01 05:07:45;;;;;;;3.10;2.22;;;;;;;-149.37;100.00;59372.97;10188249;29;20039;-72
2023/07/01 05:12:48;;;;;;;2.83;2.00;;;;;;;-149.37;100.00;59372.97;10193955;29;20046;-75
2023/07/01 05:17:52;;;;;;;2.92;2.10;;;;;;;-149.37;100.00;59372.97;10196549;29;20066;-72
2023/07/01 05:22:55;;;;;;;4.05;2.00;;;;;;;-149.37;100.00;59372.97;10197520;29;20418;-74
2023/07/01 05:27:58;;;;;;;8.35;2.55;;;;;;;-149.37;100.00;59372.97;10197610;29;20043;-76
2023/07/01 05:33:02;;;;;;;3.47;1.92;;;;;;;-149.37;100.00;59372.97;10194423;29;20048;-74
2023/07/01 05:38:08;;;;;;;4.65;1.83;;;;;;;-149.37;100.00;59372.97;10195716;29;20040;-73
2023/07/01 05:43:11;;;;;;;3.25;2.00;;;;;;;-149.37;100.00;59372.97;10188792;29;20055;-73
2023/07/01 05:48:16;;;;;;;2.58;2.17;;;;;;;-149.37;100.00;59372.97;10191171;29;20040;-74
2023/07/01 05:53:18;;;;;;;3.72;2.13;;;;;;;-149.37;100.00;59372.97;10192363;29;20044;-74
2023/07/01 05:58:21;;;;;;;2.65;1.98;;;;;;;-149.37;100.00;59372.97;10186308;29;20039;-74
2023/07/01 06:03:26;;;;;;;4.63;2.53;;;;;;;-149.37;100.00;59372.97;10198439;29;20400;-73
2023/07/01 06:08:28;;;;;;;3.90;1.95;;;;;;;-149.37;100.00;59372.97;10202698;29;20074;-75
2023/07/01 06:13:31;;;;;;;7.13;1.90;;;;;;;-149.37;100.00;59372.97;10193721;29;20048;-73
2023/07/01 06:18:36;;;;;;;6.53;2.22;;;;;;;-149.37;100.00;59372.97;10202799;29;20047;-74
2023/07/01 06:23:39;;;;;;;2.28;1.48;;;;;;;-149.37;100.00;59372.97;10193665;29;20047;-75
2023/07/01 06:28:42;;;;;;;4.72;1.90;;;;;;;-149.37;100.00;59372.97;10193594;29;20447;-73
2023/07/01 06:33:47;;;;;;;3.88;2.42;;;;;;;-149.37;100.00;59372.97;10218035;29;20054;-73
2023/07/01 06:38:50;;;;;;;2.90;1.80;;;;;;;-149.37;100.00;59372.97;10212069;29;20074;-73
2023/07/01 06:43:53;;;;;;;3.97;1.98;;;;;;;-149.37;100.00;59372.97;10200178;29;20044;-74
2023/07/01 06:48:57;;;;;;;3.17;2.00;;;;;;;-149.37;100.00;59372.97;10201228;29;20070;-74
2023/07/01 06:54:00;;;;;;;5.82;2.20;;;;;;;-149.37;100.00;59372.97;10200532;29;20052;-74
2023/07/01 06:59:03;;;;;;;5.03;2.75;;;;;;;-149.37;100.00;59372.97;10197258;29;20051;-75
2023/07/01 07:04:07;;;;;;;2.42;1.85;;;;;;;-149.37;100.00;59372.97;10205503;29;20495;-74
2023/07/01 07:09:10;;;;;;;5.03;2.28;;;;;;;-149.37;100.00;59372.97;10206234;29;20035;-72
2023/07/01 07:14:13;;;;;;;2.28;2.05;;;;;;;-149.37;100.00;59372.97;10203120;29;20119;-73
2023/07/01 07:19:18;;;;;;;2.85;1.65;;;;;;;-149.37;100.00;59372.97;10202039;29;20047;-74
2023/07/01 07:24:21;;;;;;;3.85;2.30;;;;;;;-149.37;100.00;59372.97;10202756;29;20040;-74
2023/07/01 07:29:24;;;;;;;4.85;2.42;;;;;;;-149.37;100.00;59372.97;10199350;29;20043;-73
2023/07/01 07:34:28;;;;;;;4.70;2.30;;;;;;;-149.37;100.00;59372.97;10189441;29;20115;-73
2023/07/01 07:39:31;;;;;;;11.15;2.85;;;;;;;-149.37;100.00;59372.97;10200837;29;20044;-73
2023/07/01 07:44:34;;;;;;;3.92;2.80;;;;;;;-149.37;100.00;59372.97;10197677;29;20103;-73
2023/07/01 07:49:38;;;;;;;5.85;2.45;;;;;;;-149.37;100.00;59372.97;10200998;29;20530;-73
2023/07/01 07:54:42;;;;;;;7.00;2.80;;;;;;;-149.37;100.00;59372.97;10203989;29;20043;-73
2023/07/01 07:59:45;;;;;;;4.38;2.67;;;;;;;-149.37;100.00;59372.97;10204125;29;20035;-73
2023/07/01 08:04:49;;;;;;;1.98;1.77;;;;;;;-149.37;100.00;59372.97;10200645;29;20630;-72
2023/07/01 08:09:52;;;;;;;3.78;1.90;;;;;;;-149.37;100.00;59372.97;10195246;29;20518;-73
2023/07/01 08:14:55;;;;;;;3.00;1.83;;;;;;;-149.37;100.00;59372.97;10200305;29;20131;-73
2023/07/01 08:19:59;;;;;;;3.58;2.00;;;;;;;-149.37;100.00;59372.97;10203972;29;20130;-74
2023/07/01 08:25:02;;;;;;;6.05;2.38;;;;;;;-149.37;100.00;59372.97;10205402;29;20044;-73
2023/07/01 08:30:07;;;;;;;7.45;2.20;;;;;;;-149.37;100.00;59372.97;10203911;29;20040;-74
2023/07/01 08:35:11;;;;;;;3.33;2.60;;;;;;;-149.37;100.00;59372.97;10203492;29;20059;-73
2023/07/01 08:40:14;;;;;;;2.75;2.40;;;;;;;-149.37;100.00;59372.97;10202446;29;20048;-74
2023/07/01 08:45:21;;;;;;;6.15;2.58;;;;;;;-149.37;100.00;59372.97;10207138;29;20098;-73
2023/07/01 08:50:29;;;;;;;4.53;2.40;;;;;;;-149.37;100.00;59372.97;10195185;29;20132;-74
2023/07/01 08:55:33;;;;;;;3.25;2.50;;;;;;;-149.37;100.00;59372.97;10206411;29;20044;-74
2023/07/01 09:00:37;;;;;;;4.93;2.83;;;;;;;-149.37;100.00;59372.97;10227154;29;21399;-74
2023/07/01 09:05:41;;;;;;;3.78;2.85;;;;;;;-149.37;100.00;59372.97;10212546;29;20047;-75
2023/07/01 09:10:44;;;;;;;5.47;2.97;;;;;;;-149.37;100.00;59372.97;10200973;29;20143;-74
2023/07/01 09:15:48;;;;;;;5.93;3.20;;;;;;;-149.37;100.00;59372.97;10198285;29;20055;-73
2023/07/01 09:20:54;;;;;;;5.05;3.15;;;;;;;-149.37;100.00;59372.97;10191703;29;20554;-75
2023/07/01 09:26:14;;;;;;;5.95;3.15;;;;;;;-149.37;100.00;59372.97;10196827;29;20527;-74
2023/07/01 09:31:17;;;;;;;8.07;2.90;;;;;;;-149.37;100.00;59372.97;10197211;29;20047;-74
2023/07/01 09:36:26;;;;;;;5.97;3.55;;;;;;;-149.37;100.00;59372.97;10194996;29;20107;-74
2023/07/01 09:41:30;;;;;;;5.22;3.25;;;;;;;-149.37;100.00;59372.97;10192124;29;20043;-74
2023/07/01 09:46:42;;;;;;;6.15;3.10;;;;;;;-149.37;100.00;59372.97;10186499;29;20521;-74
2023/07/01 09:51:48;;;;;;;7.28;3.38;;;;;;;-149.37;100.00;59372.97;10199281;29;20538;-73
2023/07/01 09:56:51;;;;;;;6.88;2.65;;;;;;;-149.37;100.00;59372.97;10200648;29;20052;-74
2023/07/01 10:01:56;;;;;;;8.45;3.08;;;;;;;-149.37;100.00;59372.97;10202896;29;20055;-75
2023/07/01 10:07:03;;;;;;;6.47;2.65;;;;;;;-149.37;100.00;59372.97;10202383;29;20044;-74
2023/07/01 10:12:07;;;;;;;6.32;3.35;;;;;;;-149.37;100.00;59372.97;10203514;29;20044;-74
2023/07/01 10:17:11;;;;;;;6.97;3.88;;;;;;;-149.37;100.00;59372.97;10201998;29;20047;-74
2023/07/01 10:22:27;;;;;;;7.97;3.47;;;;;;;-149.37;100.00;59372.97;10195634;29;20051;-74
2023/07/01 10:28:16;;;;;;;3.63;3.28;;;;;;;-149.37;100.00;59372.97;10186072;29;20055;-74
2023/07/01 10:33:56;;;;;;;4.55;2.90;;;;;;;-149.37;100.00;59372.97;10199409;29;20075;-74
2023/07/01 10:39:35;;;;;;;3.42;3.00;;;;;;;-149.37;100.00;59372.97;10199549;29;20054;-74
2023/07/01 10:44:40;;;;;;;3.92;2.97;;;;;;;-149.37;100.00;59372.97;10198906;29;20054;-73
2023/07/01 10:50:06;;;;;;;8.20;3.50;;;;;;;-149.37;100.00;59372.97;10222221;29;20095;-74
2023/07/01 10:55:46;;;;;;;4.45;3.30;;;;;;;-149.37;100.00;59372.97;10207759;29;20040;-75
2023/07/01 11:00:52;;;;;;;6.95;2.97;;;;;;;-149.37;100.00;59372.97;10202777;29;20048;-75
2023/07/01 11:05:59;;;;;;;2.45;2.25;;;;;;;-149.37;100.00;59372.97;10201047;29;20043;-74
2023/07/01 11:11:03;;;;;;;5.88;2.88;;;;;;;-149.37;100.00;59372.97;10208363;29;20048;-73
2023/07/01 11:16:09;;;;;;;4.28;2.63;;;;;;;-149.37;100.00;59372.97;10209505;29;20044;-75
2023/07/01 11:21:14;;;;;;;2.70;2.17;;;;;;;-149.37;100.00;59372.97;10209737;29;20122;-74
2023/07/01 11:26:19;;;;;;;5.40;2.50;;;;;;;-149.37;100.00;59372.97;10201558;29;20043;-74
2023/07/01 11:31:25;;;;;;;3.78;2.78;;;;;;;-149.37;100.00;59372.97;10201295;29;20047;-74
2023/07/01 11:36:37;;;;;;;4.30;2.50;;;;;;;-149.37;100.00;59372.97;10206255;29;20051;-74
2023/07/01 11:41:41;;;;;;;2.92;2.50;;;;;;;-149.37;100.00;59372.97;10203799;29;20499;-74
2023/07/01 11:46:46;;;;;;;2.45;2.13;;;;;;;-149.37;100.00;59372.97;10207780;29;20150;-74
2023/07/01 11:51:51;;;;;;;3.83;2.53;;;;;;;-149.37;100.00;59372.97;10196831;29;20102;-74
2023/07/01 11:57:08;;;;;;;5.53;2.63;;;;;;;-149.37;100.00;59372.97;10194022;29;20123;-74
2023/07/01 12:02:13;;;;;;;2.85;2.65;;;;;;;-149.37;100.00;59372.97;10192560;29;20040;-74
2023/07/01 12:07:17;;;;;;;5.80;3.45;;;;;;;-149.37;100.00;59372.97;10191219;29;20492;-74
2023/07/01 12:12:36;;;;;;;3.72;3.15;;;;;;;-149.37;100.00;59372.97;10193560;29;20039;-74
2023/07/01 12:17:41;;;;;;;6.70;4.63;;;;;;;-149.37;100.00;59372.97;10199427;29;20047;-74
2023/07/01 12:22:44;;;;;;;5.32;4.65;;;;;;;-149.37;100.00;59372.97;10203056;29;20398;-73
2023/07/01 12:27:46;;;;;;;6.15;5.18;;;;;;;-149.37;100.00;59372.97;10200638;29;20072;-73
2023/07/01 12:32:51;;;;;;;6.00;5.50;;;;;;;-149.37;100.00;59372.97;10200660;29;20043;-73
2023/07/01 12:37:57;;;;;;;6.25;5.65;;;;;;;-149.37;100.00;59372.97;10201155;29;20067;-75
2023/07/01 12:42:59;;;;;;;7.63;5.10;;;;;;;-149.37;100.00;59372.97;10192707;29;20416;-75
2023/07/01 12:48:05;;;;;;;5.55;5.13;;;;;;;-149.37;100.00;59372.97;10195116;29;20055;-74
2023/07/01 12:53:08;;;;;;;5.55;5.05;;;;;;;-149.37;100.00;59372.97;10209863;29;20040;-73
2023/07/01 12:58:11;;;;;;;5.32;4.82;;;;;;;-149.37;100.00;59372.97;10206066;29;20046;-75
2023/07/01 13:03:15;;;;;;;4.88;4.07;;;;;;;-149.37;100.00;59372.97;10199272;29;20047;-76
2023/07/01 13:08:20;;;;;;;7.38;5.05;;;;;;;-149.37;100.00;59372.97;10205254;29;20101;-75
2023/07/01 13:13:23;;;;;;;6.32;4.13;;;;;;;-149.37;100.00;59372.97;10198589;29;20067;-75
2023/07/01 13:18:27;;;;;;;5.15;4.65;;;;;;;-149.37;100.00;59372.97;10175754;29;20040;-75
2023/07/01 13:23:30;;;;;;;4.97;4.57;;;;;;;-149.37;100.00;59372.97;10186843;29;20051;-75
2023/07/01 13:28:35;;;;;;;5.97;5.40;;;;;;;-149.37;100.00;59372.97;10193715;29;20051;-75
2023/07/01 13:33:43;;;;;;;8.65;5.68;;;;;;;-149.37;100.00;59372.97;10202367;29;20051;-76
2023/07/01 13:38:48;;;;;;;5.97;5.47;;;;;;;-149.37;100.00;59372.97;10200357;29;20063;-75
2023/07/01 13:43:59;;;;;;;5.68;5.18;;;;;;;-149.37;100.00;59372.97;10199132;29;20040;-76
2023/07/01 13:49:04;;;;;;;6.00;5.50;;;;;;;-149.37;100.00;59372.97;10194820;29;20078;-75
2023/07/01 13:54:09;;;;;;;7.45;5.88;;;;;;;-149.37;100.00;59372.97;10194351;29;20044;-75
2023/07/01 13:59:14;;;;;;;6.18;5.68;;;;;;;-149.37;100.00;59372.97;10197749;29;20040;-76
2023/07/01 14:04:21;;;;;;;7.07;6.47;;;;;;;-149.37;100.00;59372.97;10190454;29;20496;-75
2023/07/01 14:09:26;;;;;;;7.70;6.50;;;;;;;-149.37;100.00;59372.97;10189479;29;20052;-75
2023/07/01 14:14:31;;;;;;;6.72;6.22;;;;;;;-149.37;100.00;59372.97;10196646;29;20036;-75
2023/07/01 14:19:37;;;;;;;5.28;4.88;;;;;;;-149.37;100.00;59372.97;10179014;29;20526;-76
2023/07/01 14:24:40;;;;;;;6.57;5.50;;;;;;;-149.37;100.00;59372.97;10190111;29;20039;-75
2023/07/01 14:29:43;;;;;;;5.88;5.38;;;;;;;-149.37;100.00;59372.97;10190511;29;20043;-74
2023/07/01 14:34:47;;;;;;;5.85;5.35;;;;;;;-149.37;100.00;59372.97;10191300;29;20048;-75
2023/07/01 14:39:53;;;;;;;5.45;5.05;;;;;;;-149.37;100.00;59372.97;10205625;29;20094;-75
2023/07/01 14:44:58;;;;;;;6.45;5.88;;;;;;;-149.37;100.00;59372.97;10205287;29;20047;-75
2023/07/01 14:50:02;;;;;;;5.03;4.63;;;;;;;-149.37;100.00;59372.97;10207743;29;20040;-74
2023/07/01 14:55:06;;;;;;;7.00;5.60;;;;;;;-149.37;100.00;59372.97;10211714;29;20483;-75
2023/07/01 15:06:57;;;;;;;10.40;5.85;;;;;;;-149.37;100.00;59372.97;10200482;29;20032;-74
2023/07/01 15:12:00;;;;;;;3.88;3.58;;;;;;;-149.37;100.00;59372.97;10195976;29;20058;-75
2023/07/01 15:17:03;;;;;;;5.85;4.38;;;;;;;-149.37;100.00;59372.97;10196322;29;20099;-75
2023/07/01 15:22:07;;;;;;;3.88;3.58;;;;;;;-149.37;100.00;59372.97;10192615;29;20044;-76
2023/07/01 15:27:10;;;;;;;4.18;3.78;;;;;;;-149.37;100.00;59372.97;10204531;29;20051;-75
2023/07/01 15:32:13;;;;;;;4.30;4.00;;;;;;;-149.37;100.00;59372.97;10204399;29;20111;-75
2023/07/01 15:37:18;;;;;;;3.75;3.45;;;;;;;-149.37;100.00;59372.97;10195418;29;20086;-76
2023/07/01 15:42:21;;;;;;;4.88;4.47;;;;;;;-149.37;100.00;59372.97;10194384;29;20447;-76
2023/07/01 15:47:24;;;;;;;5.13;4.65;;;;;;;-149.37;100.00;59372.97;10197068;29;20046;-76
2023/07/01 15:52:28;;;;;;;4.38;4.07;;;;;;;-149.37;100.00;59372.97;10194857;29;20043;-76
2023/07/01 15:57:32;;;;;;;5.40;5.00;;;;;;;-149.37;100.00;59372.97;10196759;29;20043;-75
2023/07/01 16:02:35;;;;;;;5.30;4.68;;;;;;;-149.37;100.00;59372.97;10195701;29;20071;-75
2023/07/01 16:07:52;;;;;;;5.65;4.30;;;;;;;-149.37;100.00;59372.97;10185323;29;20043;-75
2023/07/01 16:12:58;;;;;;;4.53;4.13;;;;;;;-149.37;100.00;59372.97;10181375;29;20427;-75
2023/07/01 16:18:22;;;;;;;3.92;3.55;;;;;;;-149.37;100.00;59372.97;10197260;29;20083;-75
2023/07/01 16:23:26;;;;;;;3.53;3.33;;;;;;;-149.37;100.00;59372.97;10195960;29;20452;-75
2023/07/01 16:28:40;;;;;;;3.42;2.90;;;;;;;-149.37;100.00;59372.97;10191196;29;20074;-75
2023/07/01 16:33:45;;;;;;;2.60;2.45;;;;;;;-149.37;100.00;59372.97;10192636;29;20044;-75
2023/07/01 16:38:50;;;;;;;4.25;2.50;;;;;;;-149.37;100.00;59372.97;10193529;29;20056;-75
2023/07/01 16:43:54;;;;;;;2.42;2.33;;;;;;;-149.37;100.00;59372.97;10191369;29;20051;-75
2023/07/01 16:48:58;;;;;;;2.85;2.65;;;;;;;-149.37;100.00;59372.97;10189934;29;20636;-74
2023/07/01 16:54:14;;;;;;;4.00;2.55;;;;;;;-149.37;100.00;59372.97;10194857;29;20046;-74
2023/07/01 16:59:36;;;;;;;3.60;3.30;;;;;;;-149.37;100.00;59372.97;10211231;29;20134;-74
2023/07/01 17:04:39;;;;;;;7.63;4.00;;;;;;;-149.37;100.00;59372.97;10196985;29;20422;-75
2023/07/01 17:09:45;;;;;;;5.10;4.32;;;;;;;-149.37;100.00;59372.97;10197279;29;20055;-75
2023/07/01 17:14:55;;;;;;;8.38;5.22;;;;;;;-149.37;100.00;59372.97;10192152;29;20054;-76
2023/07/01 17:19:59;;;;;;;7.40;5.10;;;;;;;-149.37;100.00;59372.97;10188744;29;20436;-76
2023/07/01 17:25:04;;;;;;;6.13;5.55;;;;;;;-149.37;100.00;59372.97;10188463;29;20052;-76
2023/07/01 17:30:07;;;;;;;5.82;5.18;;;;;;;-149.37;100.00;59372.97;10195787;29;20467;-76
2023/07/01 17:35:15;;;;;;;6.18;5.57;;;;;;;-149.37;100.00;59372.97;10199631;29;20071;-76
2023/07/01 17:40:20;;;;;;;8.98;5.90;;;;;;;-149.37;100.00;59372.97;10194841;29;20119;-76
2023/07/01 17:45:23;;;;;;;6.68;5.43;;;;;;;-149.37;100.00;59372.97;10195863;29;20787;-75
2023/07/01 17:50:26;;;;;;;10.52;7.35;;;;;;;-149.37;100.00;59372.97;10189621;29;20040;-76
2023/07/01 17:55:30;;;;;;;11.00;7.63;;;;;;;-149.37;100.00;59372.97;10181563;29;20051;-76
2023/07/01 18:00:33;;;;;;;6.85;6.15;;;;;;;-149.37;100.00;59372.97;10192747;29;20411;-76
2023/07/01 18:05:36;;;;;;;8.70;7.05;;;;;;;-149.37;100.00;59372.97;10200644;29;20731;-76
2023/07/01 18:10:40;;;;;;;7.03;6.35;;;;;;;-149.37;100.00;59372.97;10203630;29;20064;-76
2023/07/01 18:15:43;;;;;;;10.30;6.28;;;;;;;-149.37;100.00;59372.97;10207370;29;20754;-76
2023/07/01 18:20:46;;;;;;;7.05;6.25;;;;;;;-149.37;100.00;59372.97;10196414;29;20078;-76
2023/07/01 18:25:58;;;;;;;9.50;6.40;;;;;;;-149.37;100.00;59372.97;10195181;29;20055;-76
2023/07/01 18:31:01;;;;;;;7.25;6.47;;;;;;;-149.37;100.00;59372.97;10199533;29;20051;-76
2023/07/01 18:36:05;;;;;;;5.57;4.88;;;;;;;-149.37;100.00;59372.97;10197870;29;20056;-76
2023/07/01 18:41:11;;;;;;;3.97;3.58;;;;;;;-149.37;100.00;59372.97;10201691;29;20031;-76
2023/07/01 18:46:19;;;;;;;5.65;4.63;;;;;;;-149.37;100.00;59372.97;10200693;29;20067;-76
2023/07/01 18:51:22;;;;;;;5.38;4.70;;;;;;;-149.37;100.00;59372.97;10201284;29;20044;-76
2023/07/01 18:56:26;;;;;;;5.00;4.35;;;;;;;-149.37;100.00;59372.97;10208731;29;20036;-76
2023/07/01 19:01:29;;;;;;;5.40;4.80;;;;;;;-149.37;100.00;59372.97;10203939;29;20058;-77
2023/07/01 19:06:32;;;;;;;6.85;4.80;;;;;;;-149.37;100.00;59372.97;10193903;29;20044;-76
2023/07/01 19:11:36;;;;;;;8.15;5.35;;;;;;;-149.37;100.00;59372.97;10196754;29;20044;-76
2023/07/01 19:16:39;;;;;;;7.93;5.07;;;;;;;-149.37;100.00;59372.97;10200631;29;20131;-77
2023/07/01 19:21:43;;;;;;;5.35;4.80;;;;;;;-149.37;100.00;59372.97;10205794;29;20044;-76
2023/07/01 19:26:47;;;;;;;7.65;5.97;;;;;;;-149.37;100.00;59372.97;10209323;29;20043;-76
2023/07/01 19:31:50;;;;;;;9.07;5.63;;;;;;;-149.37;100.00;59372.97;10204402;29;20063;-76
2023/07/01 19:36:53;;;;;;;6.80;6.10;;;;;;;-149.37;100.00;59372.97;10200127;29;20042;-76
2023/07/01 19:41:57;;;;;;;7.38;6.45;;;;;;;-149.37;100.00;59372.97;10198503;29;20043;-76
2023/07/01 19:47:00;;;;;;;9.00;7.30;;;;;;;-149.37;100.00;59372.97;10207401;29;20047;-76
2023/07/01 19:52:03;;;;;;;9.80;7.00;;;;;;;-149.37;100.00;59372.97;10205160;29;20050;-76
2023/07/01 19:57:08;;;;;;;10.52;7.63;;;;;;;-149.37;100.00;59372.97;10207217;29;20064;-76
2023/07/01 20:02:11;;;;;;;10.50;6.60;;;;;;;-149.37;100.00;59372.97;10206933;29;20113;-77
2023/07/01 20:07:14;;;;;;;13.63;7.68;;;;;;;-149.37;100.00;59372.97;10204832;29;20083;-76
2023/07/01 20:12:18;;;;;;;10.65;7.53;;;;;;;-149.37;100.00;59372.97;10201847;29;20491;-77
2023/07/01 20:17:23;;;;;;;9.80;7.75;;;;;;;-149.37;100.00;59372.97;10193705;29;20032;-76
2023/07/01 20:22:26;;;;;;;10.07;7.53;;;;;;;-149.37;100.00;59372.97;10205968;29;20404;-76
2023/07/01 20:27:30;;;;;;;9.95;7.50;;;;;;;-149.37;100.00;59372.97;10204035;29;20083;-77
2023/07/01 20:32:33;;;;;;;12.70;8.05;;;;;;;-149.37;100.00;59372.97;10205975;29;20142;-76
2023/07/01 20:37:36;;;;;;;11.73;7.88;;;;;;;-149.37;100.00;59372.97;10194451;29;20039;-77
2023/07/01 20:42:44;;;;;;;10.98;7.82;;;;;;;-149.37;100.00;59372.97;10198467;29;20071;-77
2023/07/01 20:47:47;;;;;;;11.43;8.10;;;;;;;-149.37;100.00;59372.97;10196726;29;20051;-76
2023/07/01 20:52:50;;;;;;;12.50;8.18;;;;;;;-149.37;100.00;59372.97;10195113;29;20483;-76
2023/07/01 20:57:55;;;;;;;12.50;8.23;;;;;;;-149.37;100.00;59372.97;10206220;29;20066;-76
2023/07/01 21:02:58;;;;;;;12.40;8.05;;;;;;;-149.37;100.00;59372.97;10213945;29;20446;-76
2023/07/01 21:08:02;;;;;;;14.05;8.10;;;;;;;-149.37;100.00;59372.97;10204595;29;20048;-76
2023/07/01 21:13:06;;;;;;;10.25;7.05;;;;;;;-149.37;100.00;59372.97;10208485;29;20049;-76
2023/07/01 21:18:09;;;;;;;14.68;7.53;;;;;;;-149.37;100.00;59372.97;10203751;29;20044;-76
2023/07/01 21:23:12;;;;;;;16.10;7.53;;;;;;;-149.37;100.00;59372.97;10194991;29;20047;-75
2023/07/01 21:28:17;;;;;;;9.73;7.60;;;;;;;-149.37;100.00;59372.97;10186777;29;20046;-75
2023/07/01 21:33:22;;;;;;;15.60;8.15;;;;;;;-149.37;100.00;59372.97;10193905;29;20048;-76
2023/07/01 21:38:25;;;;;;;11.93;8.75;;;;;;;-149.37;100.00;59372.97;10195165;29;20095;-75
2023/07/01 21:43:31;;;;;;;11.68;7.60;;;;;;;-149.37;100.00;59372.97;10198578;29;20043;-75
2023/07/01 21:48:36;;;;;;;13.93;8.55;;;;;;;-149.37;100.00;59372.97;10194562;29;20055;-75
2023/07/01 21:53:40;;;;;;;11.70;7.95;;;;;;;-149.37;100.00;59372.97;10189739;29;20095;-75
2023/07/01 21:58:47;;;;;;;13.13;7.80;;;;;;;-149.37;100.00;59372.97;10183124;29;20410;-75
2023/07/01 22:03:53;;;;;;;12.93;7.57;;;;;;;-149.37;100.00;59372.97;10191027;29;20052;-75
2023/07/01 22:08:57;;;;;;;14.85;8.88;;;;;;;-149.37;100.00;59372.97;10195680;29;20080;-75
2023/07/01 22:14:02;;;;;;;14.23;8.60;;;;;;;-149.37;100.00;59372.97;10198060;29;20075;-76
2023/07/01 22:19:05;;;;;;;14.02;8.88;;;;;;;-149.37;100.00;59372.97;10194255;29;20036;-74
2023/07/01 22:24:08;;;;;;;19.25;10.25;;;;;;;-149.37;100.00;59372.97;10193275;29;20040;-75
2023/07/01 22:29:14;;;;;;;19.52;10.50;;;;;;;-149.37;100.00;59372.97;10194275;29;20052;-75
2023/07/01 22:34:17;;;;;;;15.20;9.88;;;;;;;-149.37;100.00;59372.97;10182477;29;20051;-74
2023/07/01 22:39:20;;;;;;;13.88;8.13;;;;;;;-149.37;100.00;59372.97;10191398;29;20048;-74
2023/07/01 22:44:24;;;;;;;10.30;6.75;;;;;;;-149.37;100.00;59372.97;10194877;29;20056;-74
2023/07/01 22:49:27;;;;;;;12.02;6.45;;;;;;;-149.37;100.00;59372.97;10203003;29;20043;-75
2023/07/01 22:54:30;;;;;;;13.65;7.85;;;;;;;-149.37;100.00;59372.97;10201953;29;20044;-75